createdAt,value
2023-03-11T00:01:31.628Z,89756.65
2023-03-11T00:04:03.130Z,89750.98
2023-03-11T00:06:55.966Z,89747.87
2023-03-11T00:10:43.773Z,89749.37
2023-03-11T00:13:17.051Z,89745.45
2023-03-11T00:15:55.863Z,89743.98
2023-03-11T00:18:40.532Z,89735.58
2023-03-11T00:21:23.704Z,89736.08
2023-03-11T00:23:52.199Z,89732.60
2023-03-11T00:26:26.918Z,89732.84
2023-03-11T00:29:16.990Z,89724.45
2023-03-11T00:32:01.479Z,89718.02
2023-03-11T00:35:07.152Z,89713.93
2023-03-11T00:37:56.141Z,89714.36
2023-03-11T00:41:06.874Z,89718.84
2023-03-11T00:43:41.150Z,89708.92
2023-03-11T00:46:30.109Z,89704.16
2023-03-11T00:49:02.083Z,89698.77
2023-03-11T00:52:22.204Z,89689.52
2023-03-11T00:55:11.009Z,89685.80
2023-03-11T00:58:33.334Z,89674.90
2023-03-11T01:01:48.415Z,89669.21
2023-03-11T01:05:20.235Z,89660.40
2023-03-11T01:08:31.571Z,89654.67
2023-03-11T01:11:54.841Z,89647.61
2023-03-11T01:14:29.207Z,89644.86
2023-03-11T01:17:06.375Z,89648.34
2023-03-11T01:19:37.548Z,89646.52
2023-03-11T01:22:51.752Z,89647.17
2023-03-11T01:25:40.143Z,89636.46
2023-03-11T01:28:27.458Z,89634.56
2023-03-11T01:30:56.526Z,89630.44
2023-03-11T01:34:19.311Z,89626.67
2023-03-11T01:37:20.573Z,89626.94
2023-03-11T01:40:07.608Z,89621.73
2023-03-11T01:42:49.883Z,89619.36
2023-03-11T01:46:02.369Z,89611.67
2023-03-11T01:48:49.898Z,89608.89
2023-03-11T01:52:10.164Z,89607.55
2023-03-11T01:55:11.312Z,89607.16
2023-03-11T01:58:02.548Z,89610.29
2023-03-11T02:00:41.423Z,89606.61
2023-03-11T02:03:27.568Z,89600.98
2023-03-11T02:06:20.101Z,89601.19
2023-03-11T02:09:27.126Z,89600.88
2023-03-11T02:12:41.222Z,89596.41
2023-03-11T02:15:55.093Z,89591.48
2023-03-11T02:19:17.539Z,89589.73
2023-03-11T02:22:51.111Z,89589.21
2023-03-11T02:26:27.322Z,89588.88
2023-03-11T02:29:32.576Z,89585.23
2023-03-11T02:32:59.241Z,89577.34
2023-03-11T02:36:48.379Z,89576.77
2023-03-11T02:40:28.648Z,89572.38
2023-03-11T02:43:33.651Z,89574.59
2023-03-11T02:46:38.198Z,89575.34
2023-03-11T02:49:50.688Z,89572.80
2023-03-11T02:52:44.108Z,89568.57
2023-03-11T02:55:28.957Z,89570.67
2023-03-11T02:58:10.639Z,89570.70
2023-03-11T03:00:56.142Z,89563.33
2023-03-11T03:03:45.654Z,89562.53
2023-03-11T03:06:40.415Z,89559.98
2023-03-11T03:09:18.201Z,89556.83
2023-03-11T03:11:57.331Z,89554.04
2023-03-11T03:14:34.319Z,89553.73
2023-03-11T03:17:38.362Z,89551.24
2023-03-11T03:20:43.224Z,89549.40
2023-03-11T03:23:37.798Z,89539.02
2023-03-11T03:26:16.566Z,89521.07
2023-03-11T03:28:57.022Z,89516.21
2023-03-11T03:31:33.277Z,89517.90
2023-03-11T03:34:24.206Z,89516.23
2023-03-11T03:37:04.809Z,89528.72
2023-03-11T03:39:51.739Z,89530.59
2023-03-11T03:42:38.029Z,89532.55
2023-03-11T03:45:29.573Z,89528.58
2023-03-11T03:48:27.982Z,89514.48
2023-03-11T03:51:13.645Z,89513.13
2023-03-11T03:54:09.110Z,89523.16
2023-03-11T03:56:48.088Z,89519.61
2023-03-11T04:00:09.124Z,89511.41
2023-03-11T04:03:05.581Z,89506.38
2023-03-11T04:06:49.983Z,89506.42
2023-03-11T04:09:34.948Z,89497.35
2023-03-11T04:12:39.200Z,89493.95
2023-03-11T04:15:53.816Z,89493.90
2023-03-11T04:18:40.874Z,89488.46
2023-03-11T04:22:20.045Z,89482.09
2023-03-11T04:25:36.408Z,89478.30
2023-03-11T04:28:52.553Z,89477.30
2023-03-11T04:31:50.833Z,89480.50
2023-03-11T04:34:58.769Z,89484.95
2023-03-11T04:38:37.119Z,89476.52
2023-03-11T04:42:08.618Z,89476.02
2023-03-11T04:45:26.703Z,89483.80
2023-03-11T04:48:45.147Z,89484.14
2023-03-11T04:52:34.306Z,89474.73
2023-03-11T04:55:34.920Z,89468.11
2023-03-11T04:58:26.597Z,89471.08
2023-03-11T05:01:44.704Z,89468.95
2023-03-11T05:05:25.960Z,89461.89
2023-03-11T05:08:58.414Z,89461.63
2023-03-11T05:12:12.652Z,89464.91
2023-03-11T05:15:11.231Z,89461.27
2023-03-11T05:19:00.489Z,89466.27
2023-03-11T05:22:07.057Z,89462.23
2023-03-11T05:25:28.288Z,89461.55
2023-03-11T05:28:58.077Z,89461.71
2023-03-11T05:32:14.607Z,89463.65
2023-03-11T05:35:21.176Z,89465.90
2023-03-11T05:38:40.232Z,89458.44
2023-03-11T05:41:43.499Z,89452.88
2023-03-11T05:44:47.104Z,89458.81
2023-03-11T05:47:22.344Z,89462.62
2023-03-11T05:50:17.492Z,89452.07
2023-03-11T05:53:35.931Z,89445.59
2023-03-11T05:57:06.794Z,89449.80
2023-03-11T06:00:05.546Z,89448.95
2023-03-11T06:03:13.768Z,89461.47
2023-03-11T06:06:08.264Z,89461.73
2023-03-11T06:08:56.162Z,89461.61
2023-03-11T06:11:46.419Z,89453.51
2023-03-11T06:14:42.719Z,89456.17
2023-03-11T06:18:08.389Z,89452.71
2023-03-11T06:21:41.900Z,89444.95
2023-03-11T06:24:38.435Z,89446.21
2023-03-11T06:27:56.737Z,89437.77
2023-03-11T06:30:50.942Z,89436.20
2023-03-11T06:33:51.468Z,89433.88
2023-03-11T06:36:57.999Z,89431.11
2023-03-11T06:39:40.155Z,89427.29
2023-03-11T06:42:35.214Z,89421.27
2023-03-11T06:45:28.579Z,89419.71
2023-03-11T06:48:10.732Z,89428.14
2023-03-11T06:51:13.489Z,89423.80
2023-03-11T06:54:48.172Z,89414.20
2023-03-11T06:58:08.164Z,89419.82
2023-03-11T07:01:32.653Z,89415.02
2023-03-11T07:05:15.979Z,89407.48
2023-03-11T07:08:20.879Z,89400.95
2023-03-11T07:12:06.421Z,89402.12
2023-03-11T07:15:10.996Z,89397.45
2023-03-11T07:18:08.816Z,89395.58
2023-03-11T07:21:17.783Z,89397.85
2023-03-11T07:24:15.288Z,89402.36
2023-03-11T07:26:54.293Z,89408.02
2023-03-11T07:29:22.830Z,89407.60
2023-03-11T07:31:51.531Z,89405.21
2023-03-11T07:34:29.046Z,89403.33
2023-03-11T07:37:00.140Z,89401.48
2023-03-11T07:39:28.536Z,89404.67
2023-03-11T07:41:59.847Z,89407.83
2023-03-11T07:44:38.252Z,89410.84
2023-03-11T07:47:09.260Z,89414.01
2023-03-11T07:49:40.979Z,89411.79
2023-03-11T07:52:09.714Z,89411.05
2023-03-11T07:54:45.467Z,89406.54
2023-03-11T07:57:17.281Z,89408.11
2023-03-11T07:59:58.729Z,89405.63
2023-03-11T08:02:29.690Z,89406.76
2023-03-11T08:05:44.219Z,89402.81
2023-03-11T08:08:16.295Z,89401.98
2023-03-11T08:10:44.796Z,89407.27
2023-03-11T08:13:16.070Z,89400.78
2023-03-11T08:15:49.751Z,89395.21
2023-03-11T08:18:18.257Z,89397.01
2023-03-11T08:20:55.696Z,89396.92
2023-03-11T08:23:30.060Z,89394.82
2023-03-11T08:25:59.561Z,89394.02
2023-03-11T08:28:31.661Z,89388.73
2023-03-11T08:31:13.305Z,89383.75
2023-03-11T08:33:49.974Z,89385.33
2023-03-11T08:36:21.642Z,89388.13
2023-03-11T08:39:32.680Z,89387.33
2023-03-11T08:42:21.131Z,89388.95
2023-03-11T08:44:52.595Z,89392.45
2023-03-11T08:47:57.370Z,89391.23
2023-03-11T08:50:28.753Z,89387.52
2023-03-11T08:53:00.600Z,89388.48
2023-03-11T08:55:37.466Z,89378.92
2023-03-11T08:58:22.328Z,89380.46
2023-03-11T09:01:11.283Z,89390.27
2023-03-11T09:03:42.166Z,89386.69
2023-03-11T09:06:15.480Z,89385.34
2023-03-11T09:08:45.741Z,89389.83
2023-03-11T09:11:15.388Z,89394.30
2023-03-11T09:13:46.717Z,89401.27
2023-03-11T09:16:21.175Z,89405.61
2023-03-11T09:19:10.208Z,89401.98
2023-03-11T09:21:41.473Z,89407.08
2023-03-11T09:24:33.941Z,89391.79
2023-03-11T09:27:05.661Z,89393.27
2023-03-11T09:29:36.564Z,89390.86
2023-03-11T09:32:07.695Z,89389.27
2023-03-11T09:35:00.360Z,89383.33
2023-03-11T09:38:38.572Z,89378.39
2023-03-11T09:41:23.923Z,89373.52
2023-03-11T09:44:28.023Z,89373.09
2023-03-11T09:47:17.531Z,89372.34
2023-03-11T09:50:53.010Z,89370.42
2023-03-11T09:54:46.131Z,89372.80
2023-03-11T09:57:45.154Z,89376.34
2023-03-11T10:00:29.676Z,89371.66
2023-03-11T10:03:00.566Z,89376.11
2023-03-11T10:05:30.664Z,89377.79
2023-03-11T10:08:25.380Z,89380.73
2023-03-11T10:11:10.740Z,89385.80
2023-03-11T10:13:52.777Z,89385.66
2023-03-11T10:16:43.932Z,89390.80
2023-03-11T10:20:14.022Z,89388.97
2023-03-11T10:23:13.100Z,89384.58
2023-03-11T10:26:03.226Z,89387.09
2023-03-11T10:28:45.185Z,89384.69
2023-03-11T10:31:59.629Z,89385.17
2023-03-11T10:34:49.348Z,89389.14
2023-03-11T10:37:33.261Z,89392.05
2023-03-11T10:40:55.467Z,89391.91
2023-03-11T10:43:37.431Z,89389.46
2023-03-11T10:46:15.801Z,89387.29
2023-03-11T10:49:05.411Z,89390.14
2023-03-11T10:52:08.549Z,89382.73
2023-03-11T10:55:39.152Z,89389.42
2023-03-11T10:58:33.006Z,89391.46
2023-03-11T11:01:35.743Z,89395.96
2023-03-11T11:05:04.288Z,89389.77
2023-03-11T11:08:46.376Z,89390.80
2023-03-11T11:12:08.512Z,89395.98
2023-03-11T11:15:22.791Z,89399.89
2023-03-11T11:18:39.963Z,89403.70
2023-03-11T11:21:31.062Z,89405.58
2023-03-11T11:24:59.015Z,89417.88
2023-03-11T11:28:15.660Z,89424.77
2023-03-11T11:30:56.231Z,89425.23
2023-03-11T11:33:33.899Z,89413.39
2023-03-11T11:36:51.514Z,89420.53
2023-03-11T11:39:52.081Z,89428.38
2023-03-11T11:42:44.916Z,89421.06
2023-03-11T11:45:39.828Z,89420.11
2023-03-11T11:48:59.308Z,89419.66
2023-03-11T11:52:29.531Z,89415.91
2023-03-11T11:55:36.674Z,89414.55
2023-03-11T11:58:52.641Z,89412.48
2023-03-11T12:02:18.754Z,89414.77
2023-03-11T12:06:10.377Z,89414.77
2023-03-11T12:08:56.293Z,89415.72
2023-03-11T12:11:44.691Z,89420.48
2023-03-11T12:14:28.496Z,89422.73
2023-03-11T12:18:00.547Z,89426.36
2023-03-11T12:20:43.694Z,89432.27
2023-03-11T12:23:28.150Z,89435.02
2023-03-11T12:26:50.900Z,89441.73
2023-03-11T12:29:56.646Z,89445.89
2023-03-11T12:33:36.684Z,89446.34
2023-03-11T12:36:47.315Z,89439.45
2023-03-11T12:40:10.602Z,89439.80
2023-03-11T12:42:48.885Z,89432.30
2023-03-11T12:46:36.224Z,89434.16
2023-03-11T12:50:04.863Z,89445.61
2023-03-11T12:53:06.922Z,89446.14
2023-03-11T12:56:16.577Z,89445.21
2023-03-11T12:59:42.173Z,89445.48
2023-03-11T13:03:34.888Z,89444.13
2023-03-11T13:07:25.841Z,89447.77
2023-03-11T13:10:41.338Z,89448.97
2023-03-11T13:13:42.231Z,89454.23
2023-03-11T13:16:16.933Z,89452.57
2023-03-11T13:18:54.589Z,89459.48
2023-03-11T13:21:32.583Z,89457.23
2023-03-11T13:25:05.071Z,89459.70
2023-03-11T13:27:47.374Z,89469.60
2023-03-11T13:31:01.455Z,89478.04
2023-03-11T13:33:55.584Z,89477.55
2023-03-11T13:37:17.553Z,89480.98
2023-03-11T13:40:36.274Z,89476.60
2023-03-11T13:44:08.075Z,89482.84
2023-03-11T13:47:41.572Z,89483.58
2023-03-11T13:51:33.615Z,89487.52
2023-03-11T13:54:27.179Z,89481.27
2023-03-11T13:57:53.214Z,89481.84
2023-03-11T14:01:33.882Z,89466.93
2023-03-11T14:04:39.456Z,89468.34
2023-03-11T14:07:40.003Z,89470.98
2023-03-11T14:10:41.892Z,89479.70
2023-03-11T14:14:21.526Z,89483.73
2023-03-11T14:17:15.683Z,89486.64
2023-03-11T14:20:48.741Z,89485.32
2023-03-11T14:24:03.634Z,89483.20
2023-03-11T14:27:20.952Z,89490.58
2023-03-11T14:30:30.306Z,89486.84
2023-03-11T14:33:22.955Z,89499.02
2023-03-11T14:36:05.231Z,89497.93
2023-03-11T14:40:00.749Z,89497.27
2023-03-11T14:42:57.444Z,89509.20
2023-03-11T14:46:11.277Z,89516.36
2023-03-11T14:48:46.087Z,89522.96
2023-03-11T14:51:24.418Z,89523.52
2023-03-11T14:54:40.009Z,89532.79
2023-03-11T14:57:34.791Z,89533.67
2023-03-11T15:00:15.195Z,89538.88
2023-03-11T15:03:07.535Z,89536.30
2023-03-11T15:06:20.524Z,89537.17
2023-03-11T15:09:35.512Z,89540.81
2023-03-11T15:12:07.351Z,89542.42
2023-03-11T15:14:59.711Z,89543.23
2023-03-11T15:17:42.838Z,89540.38
2023-03-11T15:21:02.391Z,89531.90
2023-03-11T15:24:09.990Z,89536.55
2023-03-11T15:26:45.080Z,89538.60
2023-03-11T15:29:16.617Z,89537.34
2023-03-11T15:32:48.777Z,89539.95
2023-03-11T15:35:21.616Z,89532.45
2023-03-11T15:38:11.701Z,89526.58
2023-03-11T15:41:11.403Z,89525.81
2023-03-11T15:44:02.173Z,89539.17
2023-03-11T15:46:36.501Z,89545.15
2023-03-11T15:49:37.888Z,89544.03
2023-03-11T15:52:19.382Z,89553.71
2023-03-11T15:55:00.639Z,89558.27
2023-03-11T15:58:14.459Z,89560.31
2023-03-11T16:01:29.198Z,89572.86
2023-03-11T16:04:26.550Z,89581.63
2023-03-11T16:07:07.459Z,89580.28
2023-03-11T16:09:40.036Z,89579.38
2023-03-11T16:12:43.003Z,89577.66
2023-03-11T16:15:55.580Z,89579.70
2023-03-11T16:18:35.906Z,89589.25
2023-03-11T16:21:17.905Z,89599.56
2023-03-11T16:23:52.631Z,89614.76
2023-03-11T16:27:03.956Z,89624.08
2023-03-11T16:29:36.937Z,89637.69
2023-03-11T16:32:43.240Z,89652.66
2023-03-11T16:36:06.457Z,89659.51
2023-03-11T16:39:20.153Z,89659.77
2023-03-11T16:42:13.582Z,89660.94
2023-03-11T16:44:58.325Z,89660.83
2023-03-11T16:47:27.113Z,89671.25
2023-03-11T16:50:13.995Z,89678.63
2023-03-11T16:53:31.916Z,89684.66
2023-03-11T16:56:19.877Z,89694.77
2023-03-11T16:59:07.025Z,89700.65
2023-03-11T17:02:03.207Z,89700.45
2023-03-11T17:05:04.796Z,89706.13
2023-03-11T17:07:40.098Z,89710.43
2023-03-11T17:10:37.974Z,89710.96
2023-03-11T17:13:39.346Z,89716.64
2023-03-11T17:17:07.823Z,89720.89
2023-03-11T17:20:44.765Z,89723.73
2023-03-11T17:23:30.685Z,89736.73
2023-03-11T17:26:55.201Z,89746.32
2023-03-11T17:29:33.827Z,89750.43
2023-03-11T17:33:05.566Z,89757.60
2023-03-11T17:36:50.789Z,89755.27
2023-03-11T17:40:32.800Z,89759.79
2023-03-11T17:44:02.984Z,89757.67
2023-03-11T17:47:20.194Z,89751.42
2023-03-11T17:50:44.993Z,89748.56
2023-03-11T17:54:15.521Z,89751.79
2023-03-11T17:57:47.682Z,89759.90
2023-03-11T18:00:39.907Z,89759.15
2023-03-11T18:04:06.755Z,89773.35
2023-03-11T18:07:37.849Z,89781.57
2023-03-11T18:11:12.230Z,89785.70
2023-03-11T18:14:07.328Z,89803.28
2023-03-11T18:17:56.623Z,89812.08
2023-03-11T18:21:35.677Z,89812.13
2023-03-11T18:25:23.514Z,89822.52
2023-03-11T18:28:42.507Z,89830.45
2023-03-11T18:31:42.754Z,89829.29
2023-03-11T18:35:01.294Z,89839.96
2023-03-11T18:38:19.537Z,89849.13
2023-03-11T18:41:40.090Z,89851.89
2023-03-11T18:45:16.707Z,89855.06
2023-03-11T18:48:26.622Z,89859.20
2023-03-11T18:51:42.096Z,89878.38
2023-03-11T18:54:18.426Z,89886.50
2023-03-11T18:57:49.842Z,89889.40
2023-03-11T19:01:15.736Z,89893.38
2023-03-11T19:04:27.778Z,89885.15
2023-03-11T19:07:13.997Z,89892.39
2023-03-11T19:10:25.572Z,89894.13
2023-03-11T19:13:50.217Z,89896.69
2023-03-11T19:17:19.813Z,89904.38
2023-03-11T19:20:33.277Z,89900.18
2023-03-11T19:23:19.378Z,89896.00
2023-03-11T19:26:45.445Z,89902.08
2023-03-11T19:30:14.159Z,89916.13
2023-03-11T19:32:57.156Z,89925.27
2023-03-11T19:36:02.601Z,89931.89
2023-03-11T19:39:14.170Z,89931.66
2023-03-11T19:41:59.186Z,89933.46
2023-03-11T19:45:00.197Z,89939.15
2023-03-11T19:47:50.116Z,89943.64
2023-03-11T19:51:15.099Z,89948.39
2023-03-11T19:54:10.058Z,89959.16
2023-03-11T19:57:15.087Z,89953.91
2023-03-11T19:59:46.204Z,89956.97
2023-03-11T20:02:47.874Z,89954.75
2023-03-11T20:06:00.772Z,89957.30
2023-03-11T20:09:19.750Z,89958.94
2023-03-11T20:12:55.770Z,89969.67
2023-03-11T20:16:11.040Z,89977.73
2023-03-11T20:19:02.160Z,89986.63
2023-03-11T20:22:10.968Z,89989.52
2023-03-11T20:25:01.403Z,89989.23
2023-03-11T20:27:40.543Z,89993.36
2023-03-11T20:31:17.193Z,89996.03
2023-03-11T20:34:29.429Z,90005.90
2023-03-11T20:37:45.986Z,90011.80
2023-03-11T20:41:28.031Z,90012.23
2023-03-11T20:45:06.137Z,90015.05
2023-03-11T20:48:12.492Z,90016.33
2023-03-11T20:51:21.405Z,90017.98
2023-03-11T20:54:19.837Z,90018.30
2023-03-11T20:57:11.953Z,90013.56
2023-03-11T21:00:21.202Z,90012.86
2023-03-11T21:03:08.352Z,90018.73
2023-03-11T21:06:40.068Z,90016.73
2023-03-11T21:09:29.610Z,90018.45
2023-03-11T21:12:20.335Z,90025.59
2023-03-11T21:15:08.879Z,90031.40
2023-03-11T21:17:45.311Z,90030.30
2023-03-11T21:20:25.322Z,90033.06
2023-03-11T21:23:20.832Z,90032.44
2023-03-11T21:26:13.185Z,90033.98
2023-03-11T21:28:47.265Z,90031.60
2023-03-11T21:31:44.387Z,90033.34
2023-03-11T21:35:02.025Z,90038.21
2023-03-11T21:38:34.501Z,90039.66
2023-03-11T21:41:42.970Z,90040.86
2023-03-11T21:45:07.511Z,90036.59
2023-03-11T21:48:36.839Z,90043.23
2023-03-11T21:52:34.948Z,90046.02
2023-03-11T21:56:12.357Z,90049.21
2023-03-11T21:59:47.169Z,90048.63
2023-03-11T22:03:25.641Z,90048.98
2023-03-11T22:07:13.536Z,90050.58
2023-03-11T22:11:01.615Z,90056.59
2023-03-11T22:13:59.295Z,90052.85
2023-03-11T22:17:04.203Z,90053.58
2023-03-11T22:20:33.578Z,90054.58
2023-03-11T22:23:37.948Z,90056.52
2023-03-11T22:26:56.460Z,90059.49
2023-03-11T22:30:45.558Z,90068.99
2023-03-11T22:34:00.107Z,90077.70
2023-03-11T22:37:13.810Z,90083.52
2023-03-11T22:40:34.317Z,90083.73
2023-03-11T22:43:44.586Z,90083.20
2023-03-11T22:46:49.610Z,90086.59
2023-03-11T22:50:38.767Z,90079.56
2023-03-11T22:54:18.061Z,90079.65
2023-03-11T22:57:22.218Z,90085.02
2023-03-11T23:00:42.560Z,90081.36
2023-03-11T23:04:31.437Z,90081.67
2023-03-11T23:07:43.527Z,90086.60
2023-03-11T23:11:11.141Z,90087.58
2023-03-11T23:14:16.353Z,90092.48
2023-03-11T23:16:53.188Z,90093.70
2023-03-11T23:19:54.721Z,90094.17
2023-03-11T23:23:04.088Z,90099.59
2023-03-11T23:26:27.563Z,90098.86
2023-03-11T23:29:21.926Z,90104.68
2023-03-11T23:31:56.248Z,90108.70
2023-03-11T23:35:11.358Z,90107.27
2023-03-11T23:37:53.730Z,90117.88
2023-03-11T23:40:57.131Z,90122.29
2023-03-11T23:43:28.973Z,90116.35
2023-03-11T23:46:44.244Z,90123.02
2023-03-11T23:50:23.083Z,90132.32
2023-03-11T23:53:24.307Z,90136.15
2023-03-11T23:56:39.122Z,90136.97
2023-03-11T23:59:48.498Z,90141.32
